sensor_id;sensor_type;location;lat;lon;timestamp;P1;durP1;ratioP1;P2;durP2;ratioP2
41661;SDS011;27351;45.992;12.666;2022-09-09T00:00:49;5.75;;;2.05;;
41661;SDS011;27351;45.992;12.666;2022-09-09T00:03:24;5.25;;;2.10;;
41661;SDS011;27351;45.992;12.666;2022-09-09T00:11:13;5.32;;;2.30;;
41661;SDS011;27351;45.992;12.666;2022-09-09T00:13:42;6.80;;;2.10;;
41661;SDS011;27351;45.992;12.666;2022-09-09T00:16:21;6.60;;;2.23;;
41661;SDS011;27351;45.992;12.666;2022-09-09T00:21:16;3.67;;;1.85;;
41661;SDS011;27351;45.992;12.666;2022-09-09T00:23:53;4.28;;;2.20;;
41661;SDS011;27351;45.992;12.666;2022-09-09T00:31:25;5.65;;;2.17;;
41661;SDS011;27351;45.992;12.666;2022-09-09T00:33:51;3.40;;;1.92;;
41661;SDS011;27351;45.992;12.666;2022-09-09T00:36:19;4.10;;;1.90;;
41661;SDS011;27351;45.992;12.666;2022-09-09T00:38:49;4.13;;;2.35;;
41661;SDS011;27351;45.992;12.666;2022-09-09T00:41:19;5.57;;;2.08;;
41661;SDS011;27351;45.992;12.666;2022-09-09T00:43:57;6.22;;;2.00;;
41661;SDS011;27351;45.992;12.666;2022-09-09T00:46:41;5.07;;;2.15;;
41661;SDS011;27351;45.992;12.666;2022-09-09T01:10:53;6.88;;;2.30;;
41661;SDS011;27351;45.992;12.666;2022-09-09T01:13:28;9.63;;;2.47;;
41661;SDS011;27351;45.992;12.666;2022-09-09T01:16:04;5.17;;;2.63;;
41661;SDS011;27351;45.992;12.666;2022-09-09T01:18:35;5.00;;;2.30;;
41661;SDS011;27351;45.992;12.666;2022-09-09T01:28:48;5.45;;;2.60;;
41661;SDS011;27351;45.992;12.666;2022-09-09T01:31:20;5.60;;;2.05;;
41661;SDS011;27351;45.992;12.666;2022-09-09T01:33:47;6.70;;;2.55;;
41661;SDS011;27351;45.992;12.666;2022-09-09T01:36:15;5.73;;;2.10;;
41661;SDS011;27351;45.992;12.666;2022-09-09T01:38:49;5.35;;;2.03;;
41661;SDS011;27351;45.992;12.666;2022-09-09T01:41:16;4.35;;;2.13;;
41661;SDS011;27351;45.992;12.666;2022-09-09T01:44:02;4.75;;;1.83;;
41661;SDS011;27351;45.992;12.666;2022-09-09T01:46:30;5.22;;;1.98;;
41661;SDS011;27351;45.992;12.666;2022-09-09T01:48:57;4.53;;;2.07;;
41661;SDS011;27351;45.992;12.666;2022-09-09T01:51:26;4.63;;;1.83;;
41661;SDS011;27351;45.992;12.666;2022-09-09T01:53:51;6.20;;;2.20;;
41661;SDS011;27351;45.992;12.666;2022-09-09T02:01:22;6.43;;;2.00;;
41661;SDS011;27351;45.992;12.666;2022-09-09T02:03:56;5.15;;;1.98;;
41661;SDS011;27351;45.992;12.666;2022-09-09T02:06:35;5.68;;;2.22;;
41661;SDS011;27351;45.992;12.666;2022-09-09T02:09:14;4.53;;;2.05;;
41661;SDS011;27351;45.992;12.666;2022-09-09T02:11:44;5.32;;;2.10;;
41661;SDS011;27351;45.992;12.666;2022-09-09T02:14:25;4.15;;;2.05;;
41661;SDS011;27351;45.992;12.666;2022-09-09T02:16:57;3.60;;;1.80;;
41661;SDS011;27351;45.992;12.666;2022-09-09T02:19:41;4.10;;;1.80;;
41661;SDS011;27351;45.992;12.666;2022-09-09T02:22:24;5.10;;;2.38;;
41661;SDS011;27351;45.992;12.666;2022-09-09T02:24:52;7.22;;;2.10;;
41661;SDS011;27351;45.992;12.666;2022-09-09T02:27:24;4.75;;;2.20;;
41661;SDS011;27351;45.992;12.666;2022-09-09T02:29:51;5.55;;;2.30;;
41661;SDS011;27351;45.992;12.666;2022-09-09T02:32:29;4.88;;;2.10;;
41661;SDS011;27351;45.992;12.666;2022-09-09T02:35:00;5.32;;;2.33;;
41661;SDS011;27351;45.992;12.666;2022-09-09T02:37:29;5.67;;;2.30;;
41661;SDS011;27351;45.992;12.666;2022-09-09T02:39:56;5.77;;;2.30;;
41661;SDS011;27351;45.992;12.666;2022-09-09T02:42:23;4.77;;;2.33;;
41661;SDS011;27351;45.992;12.666;2022-09-09T02:44:52;6.88;;;2.60;;
41661;SDS011;27351;45.992;12.666;2022-09-09T02:54:57;5.45;;;2.33;;
41661;SDS011;27351;45.992;12.666;2022-09-09T02:57:26;7.13;;;2.77;;
41661;SDS011;27351;45.992;12.666;2022-09-09T02:59:53;5.95;;;2.63;;
41661;SDS011;27351;45.992;12.666;2022-09-09T03:02:23;5.18;;;2.53;;
41661;SDS011;27351;45.992;12.666;2022-09-09T03:04:54;6.40;;;2.40;;
41661;SDS011;27351;45.992;12.666;2022-09-09T03:07:20;6.47;;;2.70;;
41661;SDS011;27351;45.992;12.666;2022-09-09T03:09:47;5.90;;;2.25;;
41661;SDS011;27351;45.992;12.666;2022-09-09T03:12:12;6.53;;;2.70;;
41661;SDS011;27351;45.992;12.666;2022-09-09T03:14:39;4.93;;;2.30;;
41661;SDS011;27351;45.992;12.666;2022-09-09T03:17:05;5.70;;;2.50;;
41661;SDS011;27351;45.992;12.666;2022-09-09T03:19:36;8.70;;;2.50;;
41661;SDS011;27351;45.992;12.666;2022-09-09T03:22:05;6.73;;;2.60;;
41661;SDS011;27351;45.992;12.666;2022-09-09T03:24:34;7.65;;;2.65;;
41661;SDS011;27351;45.992;12.666;2022-09-09T03:27:03;4.88;;;2.80;;
41661;SDS011;27351;45.992;12.666;2022-09-09T03:29:29;6.65;;;2.80;;
41661;SDS011;27351;45.992;12.666;2022-09-09T03:31:58;5.63;;;2.65;;
41661;SDS011;27351;45.992;12.666;2022-09-09T03:34:24;7.03;;;3.00;;
41661;SDS011;27351;45.992;12.666;2022-09-09T03:36:49;6.33;;;2.70;;
41661;SDS011;27351;45.992;12.666;2022-09-09T03:39:16;7.88;;;3.08;;
41661;SDS011;27351;45.992;12.666;2022-09-09T03:41:43;6.47;;;2.75;;
41661;SDS011;27351;45.992;12.666;2022-09-09T03:44:11;5.90;;;3.10;;
41661;SDS011;27351;45.992;12.666;2022-09-09T03:46:39;8.02;;;3.13;;
41661;SDS011;27351;45.992;12.666;2022-09-09T03:49:05;8.80;;;3.03;;
41661;SDS011;27351;45.992;12.666;2022-09-09T03:51:31;5.30;;;2.63;;
41661;SDS011;27351;45.992;12.666;2022-09-09T03:53:57;6.15;;;2.40;;
41661;SDS011;27351;45.992;12.666;2022-09-09T03:56:25;6.82;;;2.88;;
41661;SDS011;27351;45.992;12.666;2022-09-09T03:58:52;7.32;;;2.90;;
41661;SDS011;27351;45.992;12.666;2022-09-09T04:01:17;5.43;;;2.50;;
41661;SDS011;27351;45.992;12.666;2022-09-09T04:03:44;5.75;;;2.33;;
41661;SDS011;27351;45.992;12.666;2022-09-09T04:06:13;5.03;;;2.40;;
41661;SDS011;27351;45.992;12.666;2022-09-09T04:08:43;8.57;;;2.47;;
41661;SDS011;27351;45.992;12.666;2022-09-09T04:11:09;5.30;;;2.17;;
41661;SDS011;27351;45.992;12.666;2022-09-09T04:13:37;5.47;;;2.00;;
41661;SDS011;27351;45.992;12.666;2022-09-09T04:16:06;5.43;;;2.28;;
41661;SDS011;27351;45.992;12.666;2022-09-09T04:18:35;5.77;;;2.50;;
41661;SDS011;27351;45.992;12.666;2022-09-09T04:21:02;5.47;;;2.45;;
41661;SDS011;27351;45.992;12.666;2022-09-09T04:23:30;5.75;;;2.30;;
41661;SDS011;27351;45.992;12.666;2022-09-09T04:25:58;4.20;;;2.00;;
41661;SDS011;27351;45.992;12.666;2022-09-09T04:28:25;4.55;;;2.10;;
41661;SDS011;27351;45.992;12.666;2022-09-09T04:30:53;6.40;;;1.93;;
41661;SDS011;27351;45.992;12.666;2022-09-09T04:33:19;5.22;;;2.20;;
41661;SDS011;27351;45.992;12.666;2022-09-09T04:35:46;4.72;;;2.20;;
41661;SDS011;27351;45.992;12.666;2022-09-09T04:38:14;5.93;;;2.15;;
41661;SDS011;27351;45.992;12.666;2022-09-09T04:40:46;4.13;;;2.30;;
41661;SDS011;27351;45.992;12.666;2022-09-09T04:43:14;4.28;;;2.22;;
41661;SDS011;27351;45.992;12.666;2022-09-09T04:45:42;5.63;;;2.45;;
41661;SDS011;27351;45.992;12.666;2022-09-09T04:48:08;4.72;;;2.42;;
41661;SDS011;27351;45.992;12.666;2022-09-09T04:50:35;5.50;;;2.30;;
41661;SDS011;27351;45.992;12.666;2022-09-09T04:53:01;7.70;;;2.40;;
41661;SDS011;27351;45.992;12.666;2022-09-09T04:55:29;5.65;;;2.40;;
41661;SDS011;27351;45.992;12.666;2022-09-09T04:57:55;4.53;;;2.25;;
41661;SDS011;27351;45.992;12.666;2022-09-09T05:00:23;6.82;;;2.50;;
41661;SDS011;27351;45.992;12.666;2022-09-09T05:02:49;6.20;;;2.45;;
41661;SDS011;27351;45.992;12.666;2022-09-09T05:05:14;7.07;;;2.10;;
41661;SDS011;27351;45.992;12.666;2022-09-09T05:07:40;5.53;;;2.38;;
41661;SDS011;27351;45.992;12.666;2022-09-09T05:10:07;5.60;;;2.00;;
41661;SDS011;27351;45.992;12.666;2022-09-09T05:12:33;4.80;;;2.30;;
41661;SDS011;27351;45.992;12.666;2022-09-09T05:14:59;6.07;;;2.83;;
41661;SDS011;27351;45.992;12.666;2022-09-09T05:17:25;6.05;;;2.53;;
41661;SDS011;27351;45.992;12.666;2022-09-09T05:19:52;5.00;;;2.30;;
41661;SDS011;27351;45.992;12.666;2022-09-09T05:22:21;5.05;;;2.45;;
41661;SDS011;27351;45.992;12.666;2022-09-09T05:24:49;6.10;;;2.35;;
41661;SDS011;27351;45.992;12.666;2022-09-09T05:27:19;5.82;;;2.42;;
41661;SDS011;27351;45.992;12.666;2022-09-09T05:29:46;7.07;;;2.65;;
41661;SDS011;27351;45.992;12.666;2022-09-09T05:32:12;5.97;;;2.63;;
41661;SDS011;27351;45.992;12.666;2022-09-09T05:34:41;12.00;;;2.70;;
41661;SDS011;27351;45.992;12.666;2022-09-09T05:37:06;6.75;;;2.60;;
41661;SDS011;27351;45.992;12.666;2022-09-09T05:39:34;7.75;;;2.58;;
41661;SDS011;27351;45.992;12.666;2022-09-09T05:42:02;9.77;;;2.70;;
41661;SDS011;27351;45.992;12.666;2022-09-09T05:44:31;7.97;;;2.85;;
41661;SDS011;27351;45.992;12.666;2022-09-09T05:46:58;7.05;;;3.03;;
41661;SDS011;27351;45.992;12.666;2022-09-09T05:49:24;5.85;;;2.92;;
41661;SDS011;27351;45.992;12.666;2022-09-09T05:51:50;7.32;;;3.00;;
41661;SDS011;27351;45.992;12.666;2022-09-09T05:54:18;6.18;;;2.70;;
41661;SDS011;27351;45.992;12.666;2022-09-09T05:56:47;5.95;;;2.65;;
41661;SDS011;27351;45.992;12.666;2022-09-09T05:59:16;8.02;;;2.38;;
41661;SDS011;27351;45.992;12.666;2022-09-09T06:01:42;6.20;;;2.25;;
41661;SDS011;27351;45.992;12.666;2022-09-09T06:04:17;4.30;;;2.60;;
41661;SDS011;27351;45.992;12.666;2022-09-09T06:06:43;7.30;;;2.33;;
41661;SDS011;27351;45.992;12.666;2022-09-09T06:09:16;5.20;;;2.30;;
41661;SDS011;27351;45.992;12.666;2022-09-09T06:11:42;5.95;;;2.40;;
41661;SDS011;27351;45.992;12.666;2022-09-09T06:14:09;5.80;;;2.17;;
41661;SDS011;27351;45.992;12.666;2022-09-09T06:16:36;7.82;;;2.78;;
41661;SDS011;27351;45.992;12.666;2022-09-09T06:19:15;6.38;;;2.97;;
41661;SDS011;27351;45.992;12.666;2022-09-09T06:21:41;6.10;;;2.60;;
41661;SDS011;27351;45.992;12.666;2022-09-09T06:24:09;5.95;;;2.60;;
41661;SDS011;27351;45.992;12.666;2022-09-09T06:26:39;7.15;;;2.53;;
41661;SDS011;27351;45.992;12.666;2022-09-09T06:29:10;7.07;;;2.20;;
41661;SDS011;27351;45.992;12.666;2022-09-09T06:31:36;6.78;;;2.70;;
41661;SDS011;27351;45.992;12.666;2022-09-09T06:34:08;7.75;;;2.63;;
41661;SDS011;27351;45.992;12.666;2022-09-09T06:36:37;6.72;;;2.40;;
41661;SDS011;27351;45.992;12.666;2022-09-09T06:39:04;6.40;;;2.80;;
41661;SDS011;27351;45.992;12.666;2022-09-09T06:41:32;7.90;;;2.80;;
41661;SDS011;27351;45.992;12.666;2022-09-09T06:44:00;6.28;;;2.42;;
41661;SDS011;27351;45.992;12.666;2022-09-09T06:46:40;4.68;;;2.10;;
41661;SDS011;27351;45.992;12.666;2022-09-09T06:49:10;7.50;;;2.45;;
41661;SDS011;27351;45.992;12.666;2022-09-09T06:51:36;6.35;;;2.70;;
41661;SDS011;27351;45.992;12.666;2022-09-09T06:54:10;5.07;;;2.40;;
41661;SDS011;27351;45.992;12.666;2022-09-09T06:56:37;5.00;;;2.53;;
41661;SDS011;27351;45.992;12.666;2022-09-09T06:59:10;6.80;;;2.60;;
41661;SDS011;27351;45.992;12.666;2022-09-09T07:01:38;5.40;;;2.40;;
41661;SDS011;27351;45.992;12.666;2022-09-09T07:04:10;3.83;;;2.10;;
41661;SDS011;27351;45.992;12.666;2022-09-09T07:06:40;5.65;;;1.75;;
41661;SDS011;27351;45.992;12.666;2022-09-09T07:09:08;3.65;;;1.80;;
41661;SDS011;27351;45.992;12.666;2022-09-09T07:11:38;4.57;;;2.03;;
41661;SDS011;27351;45.992;12.666;2022-09-09T07:14:04;4.18;;;1.77;;
41661;SDS011;27351;45.992;12.666;2022-09-09T07:16:29;4.68;;;1.85;;
41661;SDS011;27351;45.992;12.666;2022-09-09T07:19:01;3.95;;;1.70;;
41661;SDS011;27351;45.992;12.666;2022-09-09T07:21:28;4.72;;;1.42;;
41661;SDS011;27351;45.992;12.666;2022-09-09T07:23:54;4.57;;;1.65;;
41661;SDS011;27351;45.992;12.666;2022-09-09T07:26:23;3.17;;;1.60;;
41661;SDS011;27351;45.992;12.666;2022-09-09T07:28:49;4.53;;;1.60;;
41661;SDS011;27351;45.992;12.666;2022-09-09T07:31:16;3.47;;;1.80;;
41661;SDS011;27351;45.992;12.666;2022-09-09T07:33:43;4.15;;;1.50;;
41661;SDS011;27351;45.992;12.666;2022-09-09T07:36:10;3.83;;;1.33;;
41661;SDS011;27351;45.992;12.666;2022-09-09T07:38:38;4.10;;;1.40;;
41661;SDS011;27351;45.992;12.666;2022-09-09T07:41:05;5.17;;;1.50;;
41661;SDS011;27351;45.992;12.666;2022-09-09T07:43:32;2.60;;;1.40;;
41661;SDS011;27351;45.992;12.666;2022-09-09T07:45:59;5.40;;;1.60;;
41661;SDS011;27351;45.992;12.666;2022-09-09T07:48:27;2.97;;;1.30;;
41661;SDS011;27351;45.992;12.666;2022-09-09T07:51:02;5.38;;;1.90;;
41661;SDS011;27351;45.992;12.666;2022-09-09T07:53:28;2.60;;;1.25;;
41661;SDS011;27351;45.992;12.666;2022-09-09T07:55:55;4.13;;;1.50;;
41661;SDS011;27351;45.992;12.666;2022-09-09T07:58:27;3.20;;;1.35;;
41661;SDS011;27351;45.992;12.666;2022-09-09T08:00:53;2.22;;;1.30;;
41661;SDS011;27351;45.992;12.666;2022-09-09T08:03:20;4.85;;;1.58;;
41661;SDS011;27351;45.992;12.666;2022-09-09T08:05:47;3.38;;;1.55;;
41661;SDS011;27351;45.992;12.666;2022-09-09T08:08:13;4.07;;;1.25;;
41661;SDS011;27351;45.992;12.666;2022-09-09T08:10:39;2.80;;;1.20;;
41661;SDS011;27351;45.992;12.666;2022-09-09T08:13:04;4.47;;;1.77;;
41661;SDS011;27351;45.992;12.666;2022-09-09T08:15:31;4.90;;;1.27;;
41661;SDS011;27351;45.992;12.666;2022-09-09T08:17:57;2.78;;;1.45;;
41661;SDS011;27351;45.992;12.666;2022-09-09T08:20:23;3.03;;;1.17;;
41661;SDS011;27351;45.992;12.666;2022-09-09T08:22:49;3.90;;;1.40;;
41661;SDS011;27351;45.992;12.666;2022-09-09T08:25:15;1.40;;;1.00;;
41661;SDS011;27351;45.992;12.666;2022-09-09T08:27:41;3.57;;;1.40;;
41661;SDS011;27351;45.992;12.666;2022-09-09T08:30:06;3.72;;;1.33;;
41661;SDS011;27351;45.992;12.666;2022-09-09T08:32:33;3.20;;;1.45;;
41661;SDS011;27351;45.992;12.666;2022-09-09T08:35:00;3.00;;;1.35;;
41661;SDS011;27351;45.992;12.666;2022-09-09T08:37:26;4.30;;;1.40;;
41661;SDS011;27351;45.992;12.666;2022-09-09T08:39:53;5.45;;;1.52;;
41661;SDS011;27351;45.992;12.666;2022-09-09T08:47:54;2.20;;;1.10;;
41661;SDS011;27351;45.992;12.666;2022-09-09T08:50:25;3.90;;;1.40;;
41661;SDS011;27351;45.992;12.666;2022-09-09T08:57:56;3.95;;;1.25;;
41661;SDS011;27351;45.992;12.666;2022-09-09T09:00:26;4.87;;;1.47;;
41661;SDS011;27351;45.992;12.666;2022-09-09T09:05:23;4.30;;;1.63;;
41661;SDS011;27351;45.992;12.666;2022-09-09T09:13:07;3.77;;;1.70;;
41661;SDS011;27351;45.992;12.666;2022-09-09T09:15:39;3.90;;;1.60;;
41661;SDS011;27351;45.992;12.666;2022-09-09T09:18:08;5.03;;;1.70;;
41661;SDS011;27351;45.992;12.666;2022-09-09T09:20:59;3.40;;;1.80;;
41661;SDS011;27351;45.992;12.666;2022-09-09T09:23:33;3.55;;;1.52;;
41661;SDS011;27351;45.992;12.666;2022-09-09T09:26:00;3.92;;;1.50;;
41661;SDS011;27351;45.992;12.666;2022-09-09T09:28:29;4.00;;;1.60;;
41661;SDS011;27351;45.992;12.666;2022-09-09T09:33:49;3.13;;;1.30;;
41661;SDS011;27351;45.992;12.666;2022-09-09T09:36:17;4.43;;;1.50;;
41661;SDS011;27351;45.992;12.666;2022-09-09T09:39:00;2.58;;;1.25;;
41661;SDS011;27351;45.992;12.666;2022-09-09T09:41:29;3.05;;;1.30;;
41661;SDS011;27351;45.992;12.666;2022-09-09T09:43:58;3.38;;;1.48;;
41661;SDS011;27351;45.992;12.666;2022-09-09T09:46:24;6.38;;;1.58;;
41661;SDS011;27351;45.992;12.666;2022-09-09T09:48:57;3.78;;;1.38;;
41661;SDS011;27351;45.992;12.666;2022-09-09T09:51:23;4.43;;;1.65;;
41661;SDS011;27351;45.992;12.666;2022-09-09T09:53:50;4.63;;;1.38;;
41661;SDS011;27351;45.992;12.666;2022-09-09T09:56:26;2.95;;;1.38;;
41661;SDS011;27351;45.992;12.666;2022-09-09T09:58:55;3.72;;;1.50;;
41661;SDS011;27351;45.992;12.666;2022-09-09T10:01:29;3.40;;;1.52;;
41661;SDS011;27351;45.992;12.666;2022-09-09T10:04:22;3.67;;;1.50;;
41661;SDS011;27351;45.992;12.666;2022-09-09T10:06:51;3.83;;;1.63;;
41661;SDS011;27351;45.992;12.666;2022-09-09T10:09:21;4.22;;;1.60;;
41661;SDS011;27351;45.992;12.666;2022-09-09T10:14:26;4.47;;;1.50;;
41661;SDS011;27351;45.992;12.666;2022-09-09T10:19:41;3.07;;;1.37;;
41661;SDS011;27351;45.992;12.666;2022-09-09T10:32:11;2.70;;;1.57;;
41661;SDS011;27351;45.992;12.666;2022-09-09T10:39:50;3.17;;;1.50;;
41661;SDS011;27351;45.992;12.666;2022-09-09T10:42:24;2.40;;;1.40;;
41661;SDS011;27351;45.992;12.666;2022-09-09T10:55:45;2.20;;;1.20;;
41661;SDS011;27351;45.992;12.666;2022-09-09T10:58:30;1.98;;;1.10;;
41661;SDS011;27351;45.992;12.666;2022-09-09T11:01:01;2.80;;;1.27;;
41661;SDS011;27351;45.992;12.666;2022-09-09T11:03:29;2.30;;;1.00;;
41661;SDS011;27351;45.992;12.666;2022-09-09T11:06:05;2.20;;;1.10;;
41661;SDS011;27351;45.992;12.666;2022-09-09T11:08:33;2.70;;;1.10;;
41661;SDS011;27351;45.992;12.666;2022-09-09T11:11:08;2.28;;;1.17;;
41661;SDS011;27351;45.992;12.666;2022-09-09T11:16:12;2.75;;;0.95;;
41661;SDS011;27351;45.992;12.666;2022-09-09T11:18:40;1.63;;;1.00;;
41661;SDS011;27351;45.992;12.666;2022-09-09T11:21:08;2.13;;;1.00;;
41661;SDS011;27351;45.992;12.666;2022-09-09T11:23:39;2.00;;;1.03;;
41661;SDS011;27351;45.992;12.666;2022-09-09T11:26:06;1.87;;;0.90;;
41661;SDS011;27351;45.992;12.666;2022-09-09T11:38:58;0.98;;;0.80;;
41661;SDS011;27351;45.992;12.666;2022-09-09T11:41:32;2.58;;;0.80;;
41661;SDS011;27351;45.992;12.666;2022-09-09T11:43:59;3.55;;;0.80;;
41661;SDS011;27351;45.992;12.666;2022-09-09T11:46:31;2.17;;;0.80;;
41661;SDS011;27351;45.992;12.666;2022-09-09T11:49:03;4.70;;;1.10;;
41661;SDS011;27351;45.992;12.666;2022-09-09T11:51:29;2.33;;;0.93;;
41661;SDS011;27351;45.992;12.666;2022-09-09T11:53:57;3.35;;;0.95;;
41661;SDS011;27351;45.992;12.666;2022-09-09T11:56:41;3.00;;;1.10;;
41661;SDS011;27351;45.992;12.666;2022-09-09T12:01:53;3.03;;;1.07;;
41661;SDS011;27351;45.992;12.666;2022-09-09T12:06:57;2.08;;;0.93;;
41661;SDS011;27351;45.992;12.666;2022-09-09T12:09:28;2.00;;;0.85;;
41661;SDS011;27351;45.992;12.666;2022-09-09T12:14:43;2.05;;;0.60;;
41661;SDS011;27351;45.992;12.666;2022-09-09T12:17:16;1.70;;;1.02;;
41661;SDS011;27351;45.992;12.666;2022-09-09T12:19:42;2.38;;;1.00;;
41661;SDS011;27351;45.992;12.666;2022-09-09T12:22:12;2.00;;;0.70;;
41661;SDS011;27351;45.992;12.666;2022-09-09T12:27:24;1.20;;;0.95;;
41661;SDS011;27351;45.992;12.666;2022-09-09T12:29:56;4.28;;;1.02;;
41661;SDS011;27351;45.992;12.666;2022-09-09T12:32:24;3.83;;;1.20;;
41661;SDS011;27351;45.992;12.666;2022-09-09T12:34:54;3.10;;;1.00;;
41661;SDS011;27351;45.992;12.666;2022-09-09T12:37:38;3.35;;;1.27;;
41661;SDS011;27351;45.992;12.666;2022-09-09T12:40:26;2.85;;;0.90;;
41661;SDS011;27351;45.992;12.666;2022-09-09T12:42:50;1.58;;;1.00;;
41661;SDS011;27351;45.992;12.666;2022-09-09T12:45:20;2.17;;;1.20;;
41661;SDS011;27351;45.992;12.666;2022-09-09T12:47:56;2.03;;;0.90;;
41661;SDS011;27351;45.992;12.666;2022-09-09T12:50:23;2.17;;;0.90;;
41661;SDS011;27351;45.992;12.666;2022-09-09T12:52:56;4.53;;;1.00;;
41661;SDS011;27351;45.992;12.666;2022-09-09T12:55:24;3.17;;;1.30;;
41661;SDS011;27351;45.992;12.666;2022-09-09T12:57:51;3.30;;;0.90;;
41661;SDS011;27351;45.992;12.666;2022-09-09T13:00:18;2.38;;;0.95;;
41661;SDS011;27351;45.992;12.666;2022-09-09T13:02:47;3.45;;;1.35;;
41661;SDS011;27351;45.992;12.666;2022-09-09T13:05:14;2.85;;;1.05;;
41661;SDS011;27351;45.992;12.666;2022-09-09T13:07:40;4.10;;;1.00;;
41661;SDS011;27351;45.992;12.666;2022-09-09T13:10:05;2.83;;;1.00;;
41661;SDS011;27351;45.992;12.666;2022-09-09T13:12:31;1.60;;;0.70;;
41661;SDS011;27351;45.992;12.666;2022-09-09T13:14:57;1.42;;;0.70;;
41661;SDS011;27351;45.992;12.666;2022-09-09T13:17:24;2.87;;;0.83;;
41661;SDS011;27351;45.992;12.666;2022-09-09T13:19:50;1.92;;;0.90;;
41661;SDS011;27351;45.992;12.666;2022-09-09T13:22:22;2.05;;;0.73;;
41661;SDS011;27351;45.992;12.666;2022-09-09T13:24:58;2.20;;;0.67;;
41661;SDS011;27351;45.992;12.666;2022-09-09T13:27:31;2.15;;;0.88;;
41661;SDS011;27351;45.992;12.666;2022-09-09T13:29:59;3.13;;;0.90;;
41661;SDS011;27351;45.992;12.666;2022-09-09T13:32:25;2.43;;;0.90;;
41661;SDS011;27351;45.992;12.666;2022-09-09T13:35:00;2.78;;;0.88;;
41661;SDS011;27351;45.992;12.666;2022-09-09T13:37:32;1.98;;;1.00;;
41661;SDS011;27351;45.992;12.666;2022-09-09T13:39:59;1.93;;;0.83;;
41661;SDS011;27351;45.992;12.666;2022-09-09T13:42:25;3.77;;;0.97;;
41661;SDS011;27351;45.992;12.666;2022-09-09T13:44:51;3.83;;;1.00;;
41661;SDS011;27351;45.992;12.666;2022-09-09T13:47:18;1.42;;;0.88;;
41661;SDS011;27351;45.992;12.666;2022-09-09T13:49:44;3.05;;;1.15;;
41661;SDS011;27351;45.992;12.666;2022-09-09T13:52:12;2.58;;;1.08;;
41661;SDS011;27351;45.992;12.666;2022-09-09T13:54:39;3.07;;;0.83;;
41661;SDS011;27351;45.992;12.666;2022-09-09T13:57:05;2.93;;;0.70;;
41661;SDS011;27351;45.992;12.666;2022-09-09T13:59:30;3.50;;;0.90;;
41661;SDS011;27351;45.992;12.666;2022-09-09T14:01:57;2.03;;;1.00;;
41661;SDS011;27351;45.992;12.666;2022-09-09T14:04:23;2.40;;;0.73;;
41661;SDS011;27351;45.992;12.666;2022-09-09T14:06:49;2.50;;;0.80;;
41661;SDS011;27351;45.992;12.666;2022-09-09T14:09:15;1.15;;;0.60;;
41661;SDS011;27351;45.992;12.666;2022-09-09T14:11:41;2.00;;;0.70;;
41661;SDS011;27351;45.992;12.666;2022-09-09T14:14:08;1.77;;;0.77;;
41661;SDS011;27351;45.992;12.666;2022-09-09T14:16:34;1.70;;;0.93;;
41661;SDS011;27351;45.992;12.666;2022-09-09T14:18:59;2.80;;;0.67;;
41661;SDS011;27351;45.992;12.666;2022-09-09T14:21:25;1.27;;;0.80;;
41661;SDS011;27351;45.992;12.666;2022-09-09T14:23:51;1.30;;;0.70;;
41661;SDS011;27351;45.992;12.666;2022-09-09T14:26:20;2.30;;;0.77;;
41661;SDS011;27351;45.992;12.666;2022-09-09T14:28:46;2.13;;;0.70;;
41661;SDS011;27351;45.992;12.666;2022-09-09T14:31:12;2.65;;;1.00;;
41661;SDS011;27351;45.992;12.666;2022-09-09T14:33:38;3.80;;;1.17;;
41661;SDS011;27351;45.992;12.666;2022-09-09T14:36:04;2.70;;;0.90;;
41661;SDS011;27351;45.992;12.666;2022-09-09T14:38:31;0.97;;;0.67;;
41661;SDS011;27351;45.992;12.666;2022-09-09T14:40:56;3.13;;;0.82;;
41661;SDS011;27351;45.992;12.666;2022-09-09T14:43:23;1.33;;;0.77;;
41661;SDS011;27351;45.992;12.666;2022-09-09T14:45:49;2.40;;;0.60;;
41661;SDS011;27351;45.992;12.666;2022-09-09T14:48:15;3.65;;;0.90;;
41661;SDS011;27351;45.992;12.666;2022-09-09T14:50:41;1.87;;;0.60;;
41661;SDS011;27351;45.992;12.666;2022-09-09T14:53:07;2.85;;;0.70;;
41661;SDS011;27351;45.992;12.666;2022-09-09T14:55:34;2.63;;;0.88;;
41661;SDS011;27351;45.992;12.666;2022-09-09T14:57:59;2.95;;;0.60;;
41661;SDS011;27351;45.992;12.666;2022-09-09T15:00:25;1.85;;;0.80;;
41661;SDS011;27351;45.992;12.666;2022-09-09T15:02:54;2.57;;;0.90;;
41661;SDS011;27351;45.992;12.666;2022-09-09T15:05:19;1.05;;;0.65;;
41661;SDS011;27351;45.992;12.666;2022-09-09T15:07:45;1.60;;;1.10;;
41661;SDS011;27351;45.992;12.666;2022-09-09T15:10:13;3.60;;;1.00;;
41661;SDS011;27351;45.992;12.666;2022-09-09T15:12:39;2.75;;;1.17;;
41661;SDS011;27351;45.992;12.666;2022-09-09T15:15:05;8.37;;;1.80;;
41661;SDS011;27351;45.992;12.666;2022-09-09T15:17:30;3.22;;;1.05;;
41661;SDS011;27351;45.992;12.666;2022-09-09T15:19:56;1.63;;;0.90;;
41661;SDS011;27351;45.992;12.666;2022-09-09T15:22:22;2.45;;;1.00;;
41661;SDS011;27351;45.992;12.666;2022-09-09T15:24:49;1.35;;;0.70;;
41661;SDS011;27351;45.992;12.666;2022-09-09T15:27:15;2.97;;;0.88;;
41661;SDS011;27351;45.992;12.666;2022-09-09T15:29:41;2.47;;;0.70;;
41661;SDS011;27351;45.992;12.666;2022-09-09T15:32:07;2.60;;;1.20;;
41661;SDS011;27351;45.992;12.666;2022-09-09T15:34:32;2.23;;;0.80;;
41661;SDS011;27351;45.992;12.666;2022-09-09T15:36:59;1.83;;;0.82;;
41661;SDS011;27351;45.992;12.666;2022-09-09T15:39:25;2.17;;;0.80;;
41661;SDS011;27351;45.992;12.666;2022-09-09T15:41:51;2.33;;;1.02;;
41661;SDS011;27351;45.992;12.666;2022-09-09T15:44:16;2.87;;;1.10;;
41661;SDS011;27351;45.992;12.666;2022-09-09T15:46:51;1.90;;;0.80;;
41661;SDS011;27351;45.992;12.666;2022-09-09T15:51:45;2.60;;;0.80;;
41661;SDS011;27351;45.992;12.666;2022-09-09T15:54:12;3.70;;;1.30;;
41661;SDS011;27351;45.992;12.666;2022-09-09T15:56:38;2.08;;;0.90;;
41661;SDS011;27351;45.992;12.666;2022-09-09T15:59:03;1.63;;;0.70;;
41661;SDS011;27351;45.992;12.666;2022-09-09T16:01:29;0.90;;;0.70;;
41661;SDS011;27351;45.992;12.666;2022-09-09T16:03:56;1.38;;;0.90;;
41661;SDS011;27351;45.992;12.666;2022-09-09T16:06:23;2.08;;;0.90;;
41661;SDS011;27351;45.992;12.666;2022-09-09T16:08:50;1.17;;;0.70;;
41661;SDS011;27351;45.992;12.666;2022-09-09T16:11:17;2.00;;;0.80;;
41661;SDS011;27351;45.992;12.666;2022-09-09T16:13:45;2.40;;;0.70;;
41661;SDS011;27351;45.992;12.666;2022-09-09T16:16:11;1.40;;;0.90;;
41661;SDS011;27351;45.992;12.666;2022-09-09T16:18:41;3.58;;;0.90;;
41661;SDS011;27351;45.992;12.666;2022-09-09T16:21:07;1.83;;;1.08;;
41661;SDS011;27351;45.992;12.666;2022-09-09T16:23:33;1.73;;;0.90;;
41661;SDS011;27351;45.992;12.666;2022-09-09T16:25:59;3.05;;;1.08;;
41661;SDS011;27351;45.992;12.666;2022-09-09T16:28:25;2.38;;;1.15;;
41661;SDS011;27351;45.992;12.666;2022-09-09T16:30:51;2.47;;;0.82;;
41661;SDS011;27351;45.992;12.666;2022-09-09T16:33:17;1.13;;;0.87;;
41661;SDS011;27351;45.992;12.666;2022-09-09T16:35:42;2.88;;;0.90;;
41661;SDS011;27351;45.992;12.666;2022-09-09T16:38:08;1.90;;;0.90;;
41661;SDS011;27351;45.992;12.666;2022-09-09T16:40:34;2.42;;;0.90;;
41661;SDS011;27351;45.992;12.666;2022-09-09T16:43:02;1.70;;;0.88;;
41661;SDS011;27351;45.992;12.666;2022-09-09T16:45:27;2.65;;;1.05;;
41661;SDS011;27351;45.992;12.666;2022-09-09T16:47:53;3.70;;;1.00;;
41661;SDS011;27351;45.992;12.666;2022-09-09T16:50:19;3.13;;;1.08;;
41661;SDS011;27351;45.992;12.666;2022-09-09T16:52:44;2.50;;;0.90;;
41661;SDS011;27351;45.992;12.666;2022-09-09T16:55:10;2.37;;;1.00;;